sensor_id;sensor_type;location;lat;lon;timestamp;temperature;humidity
10722;DHT22;5412;59.450;18.124;2022-11-20T00:01:10;1.50;99.90
10722;DHT22;5412;59.450;18.124;2022-11-20T00:03:37;1.60;99.90
10722;DHT22;5412;59.450;18.124;2022-11-20T00:06:07;1.60;99.90
10722;DHT22;5412;59.450;18.124;2022-11-20T00:08:33;1.70;99.90
10722;DHT22;5412;59.450;18.124;2022-11-20T00:11:04;1.60;99.90
10722;DHT22;5412;59.450;18.124;2022-11-20T00:13:29;1.70;99.90
10722;DHT22;5412;59.450;18.124;2022-11-20T00:15:59;1.60;99.90
10722;DHT22;5412;59.450;18.124;2022-11-20T00:18:26;1.60;99.90
10722;DHT22;5412;59.450;18.124;2022-11-20T00:20:52;1.50;99.90
10722;DHT22;5412;59.450;18.124;2022-11-20T00:23:17;1.50;99.90
10722;DHT22;5412;59.450;18.124;2022-11-20T00:25:43;1.50;99.90
10722;DHT22;5412;59.450;18.124;2022-11-20T00:28:09;1.40;99.90
10722;DHT22;5412;59.450;18.124;2022-11-20T00:30:34;1.50;99.90
10722;DHT22;5412;59.450;18.124;2022-11-20T00:33:00;1.40;99.90
10722;DHT22;5412;59.450;18.124;2022-11-20T00:35:26;1.40;99.90
10722;DHT22;5412;59.450;18.124;2022-11-20T00:37:51;1.40;99.90
10722;DHT22;5412;59.450;18.124;2022-11-20T00:40:17;1.40;99.90
10722;DHT22;5412;59.450;18.124;2022-11-20T00:42:43;1.40;99.90
10722;DHT22;5412;59.450;18.124;2022-11-20T00:45:08;1.50;99.90
10722;DHT22;5412;59.450;18.124;2022-11-20T00:47:34;1.50;99.90
10722;DHT22;5412;59.450;18.124;2022-11-20T00:50:00;1.60;99.90
10722;DHT22;5412;59.450;18.124;2022-11-20T00:52:25;1.40;99.90
10722;DHT22;5412;59.450;18.124;2022-11-20T00:54:51;1.40;99.90
10722;DHT22;5412;59.450;18.124;2022-11-20T00:57:17;1.40;99.90
10722;DHT22;5412;59.450;18.124;2022-11-20T00:59:42;1.50;99.90
10722;DHT22;5412;59.450;18.124;2022-11-20T01:02:08;1.40;99.90
10722;DHT22;5412;59.450;18.124;2022-11-20T01:04:33;1.50;99.90
10722;DHT22;5412;59.450;18.124;2022-11-20T01:06:59;1.50;99.90
10722;DHT22;5412;59.450;18.124;2022-11-20T01:09:25;1.50;99.90
10722;DHT22;5412;59.450;18.124;2022-11-20T01:11:50;1.60;99.90
10722;DHT22;5412;59.450;18.124;2022-11-20T01:14:18;2.50;99.90
10722;DHT22;5412;59.450;18.124;2022-11-20T01:16:46;1.60;99.90
10722;DHT22;5412;59.450;18.124;2022-11-20T01:19:21;1.50;99.90
10722;DHT22;5412;59.450;18.124;2022-11-20T01:21:50;1.40;99.90
10722;DHT22;5412;59.450;18.124;2022-11-20T01:24:18;1.40;99.90
10722;DHT22;5412;59.450;18.124;2022-11-20T01:26:46;1.30;99.90
10722;DHT22;5412;59.450;18.124;2022-11-20T01:29:30;1.50;99.90
10722;DHT22;5412;59.450;18.124;2022-11-20T01:31:56;1.40;99.90
10722;DHT22;5412;59.450;18.124;2022-11-20T01:34:22;1.50;99.90
10722;DHT22;5412;59.450;18.124;2022-11-20T01:36:48;1.50;99.90
10722;DHT22;5412;59.450;18.124;2022-11-20T01:39:25;1.60;99.90
10722;DHT22;5412;59.450;18.124;2022-11-20T01:41:53;1.60;99.90
10722;DHT22;5412;59.450;18.124;2022-11-20T01:44:54;1.40;99.90
10722;DHT22;5412;59.450;18.124;2022-11-20T01:52:41;1.30;99.90
10722;DHT22;5412;59.450;18.124;2022-11-20T01:55:20;1.30;99.90
10722;DHT22;5412;59.450;18.124;2022-11-20T01:57:47;1.30;99.90
10722;DHT22;5412;59.450;18.124;2022-11-20T02:00:15;1.40;99.90
10722;DHT22;5412;59.450;18.124;2022-11-20T02:02:45;1.40;99.90
10722;DHT22;5412;59.450;18.124;2022-11-20T02:08:05;1.40;99.90
10722;DHT22;5412;59.450;18.124;2022-11-20T02:10:32;1.50;99.90
10722;DHT22;5412;59.450;18.124;2022-11-20T02:12:58;1.50;99.90
10722;DHT22;5412;59.450;18.124;2022-11-20T02:15:43;1.40;99.90
10722;DHT22;5412;59.450;18.124;2022-11-20T02:18:10;1.30;99.90
10722;DHT22;5412;59.450;18.124;2022-11-20T02:20:37;1.30;99.90
10722;DHT22;5412;59.450;18.124;2022-11-20T02:25:55;1.30;99.90
10722;DHT22;5412;59.450;18.124;2022-11-20T02:28:23;1.30;99.90
10722;DHT22;5412;59.450;18.124;2022-11-20T02:30:50;1.30;99.90
10722;DHT22;5412;59.450;18.124;2022-11-20T02:33:17;1.30;99.90
10722;DHT22;5412;59.450;18.124;2022-11-20T02:35:46;1.30;99.90
10722;DHT22;5412;59.450;18.124;2022-11-20T02:38:14;1.30;99.90
10722;DHT22;5412;59.450;18.124;2022-11-20T02:40:40;1.30;99.90
10722;DHT22;5412;59.450;18.124;2022-11-20T02:43:07;1.20;99.90
10722;DHT22;5412;59.450;18.124;2022-11-20T02:45:32;1.30;99.90
10722;DHT22;5412;59.450;18.124;2022-11-20T02:47:58;1.30;99.90
10722;DHT22;5412;59.450;18.124;2022-11-20T02:50:24;1.20;99.90
10722;DHT22;5412;59.450;18.124;2022-11-20T02:52:49;1.30;99.90
10722;DHT22;5412;59.450;18.124;2022-11-20T02:55:15;1.20;99.90
10722;DHT22;5412;59.450;18.124;2022-11-20T02:57:41;1.20;99.90
10722;DHT22;5412;59.450;18.124;2022-11-20T03:00:07;1.20;99.90
10722;DHT22;5412;59.450;18.124;2022-11-20T03:02:33;1.20;99.90
10722;DHT22;5412;59.450;18.124;2022-11-20T03:04:59;1.30;99.90
10722;DHT22;5412;59.450;18.124;2022-11-20T03:07:25;1.30;99.90
10722;DHT22;5412;59.450;18.124;2022-11-20T03:09:50;1.30;99.90
10722;DHT22;5412;59.450;18.124;2022-11-20T03:12:16;1.30;99.90
10722;DHT22;5412;59.450;18.124;2022-11-20T03:14:42;1.30;99.90
10722;DHT22;5412;59.450;18.124;2022-11-20T03:17:08;1.30;99.90
10722;DHT22;5412;59.450;18.124;2022-11-20T03:19:33;1.30;99.90
10722;DHT22;5412;59.450;18.124;2022-11-20T03:21:59;1.30;99.90
10722;DHT22;5412;59.450;18.124;2022-11-20T03:24:26;1.30;99.90
10722;DHT22;5412;59.450;18.124;2022-11-20T03:26:52;1.30;99.90
10722;DHT22;5412;59.450;18.124;2022-11-20T03:29:17;1.20;99.90
10722;DHT22;5412;59.450;18.124;2022-11-20T03:31:43;1.20;99.90
10722;DHT22;5412;59.450;18.124;2022-11-20T03:34:10;1.20;99.90
10722;DHT22;5412;59.450;18.124;2022-11-20T03:36:41;1.10;99.90
10722;DHT22;5412;59.450;18.124;2022-11-20T03:39:07;1.20;99.90
10722;DHT22;5412;59.450;18.124;2022-11-20T03:41:37;1.20;99.90
10722;DHT22;5412;59.450;18.124;2022-11-20T03:44:06;1.20;99.90
10722;DHT22;5412;59.450;18.124;2022-11-20T03:46:32;1.10;99.90
10722;DHT22;5412;59.450;18.124;2022-11-20T03:48:58;1.00;99.90
10722;DHT22;5412;59.450;18.124;2022-11-20T03:51:29;1.10;99.90
10722;DHT22;5412;59.450;18.124;2022-11-20T03:53:57;1.20;99.90
10722;DHT22;5412;59.450;18.124;2022-11-20T03:56:25;1.20;99.90
10722;DHT22;5412;59.450;18.124;2022-11-20T03:58:52;1.10;99.90
10722;DHT22;5412;59.450;18.124;2022-11-20T04:01:23;1.20;99.90
10722;DHT22;5412;59.450;18.124;2022-11-20T04:03:51;1.20;99.90
10722;DHT22;5412;59.450;18.124;2022-11-20T04:06:21;1.20;99.90
10722;DHT22;5412;59.450;18.124;2022-11-20T04:08:47;1.10;99.90
10722;DHT22;5412;59.450;18.124;2022-11-20T04:13:40;1.20;99.90
10722;DHT22;5412;59.450;18.124;2022-11-20T04:16:07;1.20;99.90
10722;DHT22;5412;59.450;18.124;2022-11-20T04:18:33;1.20;99.90
10722;DHT22;5412;59.450;18.124;2022-11-20T04:20:59;1.10;99.90
10722;DHT22;5412;59.450;18.124;2022-11-20T04:23:26;1.10;99.90
10722;DHT22;5412;59.450;18.124;2022-11-20T04:25:51;1.20;99.90
10722;DHT22;5412;59.450;18.124;2022-11-20T04:28:17;1.20;99.90
10722;DHT22;5412;59.450;18.124;2022-11-20T04:30:43;1.30;99.90
10722;DHT22;5412;59.450;18.124;2022-11-20T04:33:09;1.10;99.90
10722;DHT22;5412;59.450;18.124;2022-11-20T04:35:36;1.10;99.90
10722;DHT22;5412;59.450;18.124;2022-11-20T04:38:02;1.20;99.90
10722;DHT22;5412;59.450;18.124;2022-11-20T04:40:28;1.20;99.90
10722;DHT22;5412;59.450;18.124;2022-11-20T04:42:54;1.30;99.90
10722;DHT22;5412;59.450;18.124;2022-11-20T04:45:20;1.30;99.90
10722;DHT22;5412;59.450;18.124;2022-11-20T04:47:46;1.30;99.90
10722;DHT22;5412;59.450;18.124;2022-11-20T04:50:12;1.20;99.90
10722;DHT22;5412;59.450;18.124;2022-11-20T04:52:37;1.10;99.90
10722;DHT22;5412;59.450;18.124;2022-11-20T04:55:03;1.20;99.90
10722;DHT22;5412;59.450;18.124;2022-11-20T04:57:29;1.30;99.90
10722;DHT22;5412;59.450;18.124;2022-11-20T04:59:55;1.20;99.90
10722;DHT22;5412;59.450;18.124;2022-11-20T05:02:21;1.20;99.90
10722;DHT22;5412;59.450;18.124;2022-11-20T05:04:46;1.20;99.90
10722;DHT22;5412;59.450;18.124;2022-11-20T05:07:12;1.20;99.90
10722;DHT22;5412;59.450;18.124;2022-11-20T05:09:38;1.20;99.90
10722;DHT22;5412;59.450;18.124;2022-11-20T05:12:04;1.20;99.90
10722;DHT22;5412;59.450;18.124;2022-11-20T05:14:29;1.10;99.90
10722;DHT22;5412;59.450;18.124;2022-11-20T05:16:55;1.10;99.90
10722;DHT22;5412;59.450;18.124;2022-11-20T05:19:21;1.20;99.90
10722;DHT22;5412;59.450;18.124;2022-11-20T05:21:46;1.10;99.90
10722;DHT22;5412;59.450;18.124;2022-11-20T05:24:12;1.10;99.90
10722;DHT22;5412;59.450;18.124;2022-11-20T05:26:38;1.20;99.90
10722;DHT22;5412;59.450;18.124;2022-11-20T05:29:04;1.30;99.90
10722;DHT22;5412;59.450;18.124;2022-11-20T05:31:29;1.30;99.90
10722;DHT22;5412;59.450;18.124;2022-11-20T05:33:56;1.30;99.90
10722;DHT22;5412;59.450;18.124;2022-11-20T05:36:22;1.20;99.90
10722;DHT22;5412;59.450;18.124;2022-11-20T05:38:48;1.20;99.90
10722;DHT22;5412;59.450;18.124;2022-11-20T05:41:16;1.20;99.90
10722;DHT22;5412;59.450;18.124;2022-11-20T05:43:44;1.30;99.90
10722;DHT22;5412;59.450;18.124;2022-11-20T05:46:12;1.30;99.90
10722;DHT22;5412;59.450;18.124;2022-11-20T05:48:39;1.20;99.90
10722;DHT22;5412;59.450;18.124;2022-11-20T05:51:07;1.30;99.90
10722;DHT22;5412;59.450;18.124;2022-11-20T05:53:34;1.40;99.90
10722;DHT22;5412;59.450;18.124;2022-11-20T05:56:08;1.30;99.90
10722;DHT22;5412;59.450;18.124;2022-11-20T05:58:35;2.30;99.90
10722;DHT22;5412;59.450;18.124;2022-11-20T06:03:39;1.40;99.90
10722;DHT22;5412;59.450;18.124;2022-11-20T06:06:06;1.40;99.90
10722;DHT22;5412;59.450;18.124;2022-11-20T06:08:32;1.40;99.90
10722;DHT22;5412;59.450;18.124;2022-11-20T06:10:58;1.50;99.90
10722;DHT22;5412;59.450;18.124;2022-11-20T06:13:27;1.40;99.90
10722;DHT22;5412;59.450;18.124;2022-11-20T06:15:53;1.40;99.90
10722;DHT22;5412;59.450;18.124;2022-11-20T06:18:19;1.50;99.90
10722;DHT22;5412;59.450;18.124;2022-11-20T06:20:46;1.40;99.90
10722;DHT22;5412;59.450;18.124;2022-11-20T06:23:11;1.50;99.90
10722;DHT22;5412;59.450;18.124;2022-11-20T06:25:41;1.40;99.90
10722;DHT22;5412;59.450;18.124;2022-11-20T06:28:07;1.40;99.90
10722;DHT22;5412;59.450;18.124;2022-11-20T06:30:34;1.30;99.90
10722;DHT22;5412;59.450;18.124;2022-11-20T06:33:00;1.30;99.90
10722;DHT22;5412;59.450;18.124;2022-11-20T06:35:26;1.40;99.90
10722;DHT22;5412;59.450;18.124;2022-11-20T06:37:52;1.40;99.90
10722;DHT22;5412;59.450;18.124;2022-11-20T06:40:18;1.40;99.90
10722;DHT22;5412;59.450;18.124;2022-11-20T06:42:44;1.40;99.90
10722;DHT22;5412;59.450;18.124;2022-11-20T06:45:10;1.30;99.90
10722;DHT22;5412;59.450;18.124;2022-11-20T06:47:35;1.40;99.90
10722;DHT22;5412;59.450;18.124;2022-11-20T06:50:01;1.40;99.90
10722;DHT22;5412;59.450;18.124;2022-11-20T06:52:27;1.40;99.90
10722;DHT22;5412;59.450;18.124;2022-11-20T06:54:52;1.40;99.90
10722;DHT22;5412;59.450;18.124;2022-11-20T06:57:18;1.40;99.90
10722;DHT22;5412;59.450;18.124;2022-11-20T06:59:44;1.40;99.90
10722;DHT22;5412;59.450;18.124;2022-11-20T07:02:12;1.40;99.90
10722;DHT22;5412;59.450;18.124;2022-11-20T07:04:38;1.40;99.90
10722;DHT22;5412;59.450;18.124;2022-11-20T07:07:04;1.40;99.90
10722;DHT22;5412;59.450;18.124;2022-11-20T07:09:31;1.40;99.90
10722;DHT22;5412;59.450;18.124;2022-11-20T07:11:57;1.50;99.90
10722;DHT22;5412;59.450;18.124;2022-11-20T07:14:23;1.50;99.90
10722;DHT22;5412;59.450;18.124;2022-11-20T07:16:51;1.70;99.90
10722;DHT22;5412;59.450;18.124;2022-11-20T07:19:17;1.70;99.90
10722;DHT22;5412;59.450;18.124;2022-11-20T07:21:43;1.70;99.90
10722;DHT22;5412;59.450;18.124;2022-11-20T07:24:08;1.70;99.90
10722;DHT22;5412;59.450;18.124;2022-11-20T07:26:34;1.70;99.90
10722;DHT22;5412;59.450;18.124;2022-11-20T07:29:00;1.70;99.90
10722;DHT22;5412;59.450;18.124;2022-11-20T07:31:26;1.80;99.90
10722;DHT22;5412;59.450;18.124;2022-11-20T07:33:52;1.80;99.90
10722;DHT22;5412;59.450;18.124;2022-11-20T07:36:17;1.80;99.90
10722;DHT22;5412;59.450;18.124;2022-11-20T07:38:43;1.70;99.90
10722;DHT22;5412;59.450;18.124;2022-11-20T07:41:09;1.80;99.90
10722;DHT22;5412;59.450;18.124;2022-11-20T07:43:34;1.80;99.90
10722;DHT22;5412;59.450;18.124;2022-11-20T07:46:00;1.80;99.90
10722;DHT22;5412;59.450;18.124;2022-11-20T07:48:26;1.80;99.90
10722;DHT22;5412;59.450;18.124;2022-11-20T07:50:55;1.80;99.90
10722;DHT22;5412;59.450;18.124;2022-11-20T07:53:21;1.90;99.90
10722;DHT22;5412;59.450;18.124;2022-11-20T07:55:48;1.90;99.90
10722;DHT22;5412;59.450;18.124;2022-11-20T07:58:13;1.90;99.90
10722;DHT22;5412;59.450;18.124;2022-11-20T08:00:40;1.80;99.90
10722;DHT22;5412;59.450;18.124;2022-11-20T08:03:06;1.90;99.90
10722;DHT22;5412;59.450;18.124;2022-11-20T08:05:32;1.80;99.90
10722;DHT22;5412;59.450;18.124;2022-11-20T08:07:58;1.70;99.90
10722;DHT22;5412;59.450;18.124;2022-11-20T08:10:24;1.80;99.90
10722;DHT22;5412;59.450;18.124;2022-11-20T08:12:51;1.90;99.90
10722;DHT22;5412;59.450;18.124;2022-11-20T08:15:39;1.90;99.90
10722;DHT22;5412;59.450;18.124;2022-11-20T08:18:10;1.90;99.90
10722;DHT22;5412;59.450;18.124;2022-11-20T08:20:37;2.30;99.90
10722;DHT22;5412;59.450;18.124;2022-11-20T08:23:05;2.10;99.90
10722;DHT22;5412;59.450;18.124;2022-11-20T08:25:35;2.00;99.90
10722;DHT22;5412;59.450;18.124;2022-11-20T08:28:04;1.90;99.90
10722;DHT22;5412;59.450;18.124;2022-11-20T08:30:30;2.00;99.90
10722;DHT22;5412;59.450;18.124;2022-11-20T08:33:01;1.90;99.90
10722;DHT22;5412;59.450;18.124;2022-11-20T08:35:27;1.90;99.90
10722;DHT22;5412;59.450;18.124;2022-11-20T08:37:52;1.90;99.90
10722;DHT22;5412;59.450;18.124;2022-11-20T08:40:21;2.00;99.90
10722;DHT22;5412;59.450;18.124;2022-11-20T08:42:48;1.90;99.90
10722;DHT22;5412;59.450;18.124;2022-11-20T08:45:14;1.90;99.90
10722;DHT22;5412;59.450;18.124;2022-11-20T08:47:43;1.90;99.90
10722;DHT22;5412;59.450;18.124;2022-11-20T08:50:14;1.90;99.90
10722;DHT22;5412;59.450;18.124;2022-11-20T08:52:43;1.80;99.90
10722;DHT22;5412;59.450;18.124;2022-11-20T08:55:11;1.80;99.90
10722;DHT22;5412;59.450;18.124;2022-11-20T08:57:37;1.90;99.90
10722;DHT22;5412;59.450;18.124;2022-11-20T09:00:05;1.80;99.90
10722;DHT22;5412;59.450;18.124;2022-11-20T09:02:32;1.80;99.90
10722;DHT22;5412;59.450;18.124;2022-11-20T09:04:58;2.00;99.90
10722;DHT22;5412;59.450;18.124;2022-11-20T09:07:24;2.00;99.90
10722;DHT22;5412;59.450;18.124;2022-11-20T09:09:49;2.20;99.90
10722;DHT22;5412;59.450;18.124;2022-11-20T09:12:15;2.10;99.90
10722;DHT22;5412;59.450;18.124;2022-11-20T09:14:43;2.10;99.90
10722;DHT22;5412;59.450;18.124;2022-11-20T09:17:10;2.10;99.90
10722;DHT22;5412;59.450;18.124;2022-11-20T09:19:39;2.20;99.90
10722;DHT22;5412;59.450;18.124;2022-11-20T09:22:04;2.20;99.90
10722;DHT22;5412;59.450;18.124;2022-11-20T09:24:30;2.20;99.90
10722;DHT22;5412;59.450;18.124;2022-11-20T09:26:56;2.20;99.90
10722;DHT22;5412;59.450;18.124;2022-11-20T09:29:21;2.20;99.90
10722;DHT22;5412;59.450;18.124;2022-11-20T09:31:47;2.30;99.90
10722;DHT22;5412;59.450;18.124;2022-11-20T09:34:13;2.30;99.90
10722;DHT22;5412;59.450;18.124;2022-11-20T09:36:38;2.40;99.90
10722;DHT22;5412;59.450;18.124;2022-11-20T09:39:05;2.30;99.90
10722;DHT22;5412;59.450;18.124;2022-11-20T09:44:34;2.40;99.90
10722;DHT22;5412;59.450;18.124;2022-11-20T09:49:44;2.40;99.90
10722;DHT22;5412;59.450;18.124;2022-11-20T09:52:53;2.50;99.90
10722;DHT22;5412;59.450;18.124;2022-11-20T09:55:21;2.30;99.90
10722;DHT22;5412;59.450;18.124;2022-11-20T09:57:48;2.30;99.90
10722;DHT22;5412;59.450;18.124;2022-11-20T10:00:16;2.20;99.90
10722;DHT22;5412;59.450;18.124;2022-11-20T10:03:13;2.30;99.90
10722;DHT22;5412;59.450;18.124;2022-11-20T10:05:49;2.20;99.90
10722;DHT22;5412;59.450;18.124;2022-11-20T10:08:24;2.30;99.90
10722;DHT22;5412;59.450;18.124;2022-11-20T10:11:04;2.20;99.90
10722;DHT22;5412;59.450;18.124;2022-11-20T10:24:37;2.20;99.90
10722;DHT22;5412;59.450;18.124;2022-11-20T10:30:13;2.30;99.90
10722;DHT22;5412;59.450;18.124;2022-11-20T10:32:45;2.20;99.90
10722;DHT22;5412;59.450;18.124;2022-11-20T10:35:31;2.30;99.90
10722;DHT22;5412;59.450;18.124;2022-11-20T10:38:01;2.30;99.90
10722;DHT22;5412;59.450;18.124;2022-11-20T10:40:38;2.30;99.90
10722;DHT22;5412;59.450;18.124;2022-11-20T10:43:12;2.40;99.90
10722;DHT22;5412;59.450;18.124;2022-11-20T10:50:35;2.50;99.90
10722;DHT22;5412;59.450;18.124;2022-11-20T10:57:01;2.30;99.90
10722;DHT22;5412;59.450;18.124;2022-11-20T11:02:00;2.40;99.90
10722;DHT22;5412;59.450;18.124;2022-11-20T11:04:35;2.40;99.90
10722;DHT22;5412;59.450;18.124;2022-11-20T11:07:15;2.40;99.90
10722;DHT22;5412;59.450;18.124;2022-11-20T11:09:46;2.40;99.90
10722;DHT22;5412;59.450;18.124;2022-11-20T11:12:12;2.50;99.90
10722;DHT22;5412;59.450;18.124;2022-11-20T11:14:50;2.50;99.90
10722;DHT22;5412;59.450;18.124;2022-11-20T11:17:27;2.40;99.90
10722;DHT22;5412;59.450;18.124;2022-11-20T11:22:51;2.50;99.90
10722;DHT22;5412;59.450;18.124;2022-11-20T11:25:34;2.40;99.90
10722;DHT22;5412;59.450;18.124;2022-11-20T11:28:24;2.50;99.90
10722;DHT22;5412;59.450;18.124;2022-11-20T11:30:51;2.50;99.90
10722;DHT22;5412;59.450;18.124;2022-11-20T11:33:27;2.50;99.90
10722;DHT22;5412;59.450;18.124;2022-11-20T11:35:55;2.50;99.90
10722;DHT22;5412;59.450;18.124;2022-11-20T11:38:42;2.40;99.90
10722;DHT22;5412;59.450;18.124;2022-11-20T11:41:30;2.30;99.90
10722;DHT22;5412;59.450;18.124;2022-11-20T11:44:01;2.30;99.90
10722;DHT22;5412;59.450;18.124;2022-11-20T11:46:53;2.20;99.90
10722;DHT22;5412;59.450;18.124;2022-11-20T11:49:23;2.00;99.90
10722;DHT22;5412;59.450;18.124;2022-11-20T11:57:11;2.20;99.90
10722;DHT22;5412;59.450;18.124;2022-11-20T11:59:51;2.20;99.90
10722;DHT22;5412;59.450;18.124;2022-11-20T12:02:44;2.20;99.90
10722;DHT22;5412;59.450;18.124;2022-11-20T12:05:54;2.30;99.90
10722;DHT22;5412;59.450;18.124;2022-11-20T12:08:32;2.20;99.90
10722;DHT22;5412;59.450;18.124;2022-11-20T12:16:36;2.30;99.90
10722;DHT22;5412;59.450;18.124;2022-11-20T12:19:09;2.30;99.90
10722;DHT22;5412;59.450;18.124;2022-11-20T12:35:42;2.10;99.90
10722;DHT22;5412;59.450;18.124;2022-11-20T12:47:35;1.90;99.90
10722;DHT22;5412;59.450;18.124;2022-11-20T12:52:44;2.00;99.90
10722;DHT22;5412;59.450;18.124;2022-11-20T12:55:32;2.00;99.90
10722;DHT22;5412;59.450;18.124;2022-11-20T13:00:50;2.10;99.90
10722;DHT22;5412;59.450;18.124;2022-11-20T13:03:34;2.10;99.90
10722;DHT22;5412;59.450;18.124;2022-11-20T13:06:13;2.10;99.90
10722;DHT22;5412;59.450;18.124;2022-11-20T13:09:16;2.20;99.90
10722;DHT22;5412;59.450;18.124;2022-11-20T13:11:42;2.20;99.90
10722;DHT22;5412;59.450;18.124;2022-11-20T13:19:15;2.10;99.90
10722;DHT22;5412;59.450;18.124;2022-11-20T13:21:47;2.10;99.90
10722;DHT22;5412;59.450;18.124;2022-11-20T13:24:26;2.00;99.90
10722;DHT22;5412;59.450;18.124;2022-11-20T13:29:42;2.10;99.90
10722;DHT22;5412;59.450;18.124;2022-11-20T13:32:17;2.20;99.90
10722;DHT22;5412;59.450;18.124;2022-11-20T13:35:00;2.20;99.90
10722;DHT22;5412;59.450;18.124;2022-11-20T13:37:33;2.10;99.90
10722;DHT22;5412;59.450;18.124;2022-11-20T13:42:38;2.00;99.90
10722;DHT22;5412;59.450;18.124;2022-11-20T13:45:20;2.00;99.90
10722;DHT22;5412;59.450;18.124;2022-11-20T13:47:51;2.00;99.90
10722;DHT22;5412;59.450;18.124;2022-11-20T13:50:17;1.70;99.90
10722;DHT22;5412;59.450;18.124;2022-11-20T13:55:44;1.60;99.90
10722;DHT22;5412;59.450;18.124;2022-11-20T13:58:44;1.50;99.90
10722;DHT22;5412;59.450;18.124;2022-11-20T14:01:21;1.50;99.90
10722;DHT22;5412;59.450;18.124;2022-11-20T14:03:48;1.30;99.90
10722;DHT22;5412;59.450;18.124;2022-11-20T14:06:27;1.50;99.90
10722;DHT22;5412;59.450;18.124;2022-11-20T14:08:53;1.50;99.90
10722;DHT22;5412;59.450;18.124;2022-11-20T14:11:22;1.50;99.90
10722;DHT22;5412;59.450;18.124;2022-11-20T14:13:56;1.60;99.90
10722;DHT22;5412;59.450;18.124;2022-11-20T14:16:24;1.60;99.90
10722;DHT22;5412;59.450;18.124;2022-11-20T14:18:50;1.60;99.90
10722;DHT22;5412;59.450;18.124;2022-11-20T14:21:24;1.60;99.90
10722;DHT22;5412;59.450;18.124;2022-11-20T14:23:53;1.60;99.90
10722;DHT22;5412;59.450;18.124;2022-11-20T14:26:19;1.50;99.90
10722;DHT22;5412;59.450;18.124;2022-11-20T14:28:49;1.50;99.90
10722;DHT22;5412;59.450;18.124;2022-11-20T14:31:23;1.50;99.90
10722;DHT22;5412;59.450;18.124;2022-11-20T14:33:51;1.50;99.90
10722;DHT22;5412;59.450;18.124;2022-11-20T14:36:22;1.50;99.90
10722;DHT22;5412;59.450;18.124;2022-11-20T14:38:49;1.40;99.90
10722;DHT22;5412;59.450;18.124;2022-11-20T14:41:21;1.50;99.90
10722;DHT22;5412;59.450;18.124;2022-11-20T14:43:56;1.40;99.90
10722;DHT22;5412;59.450;18.124;2022-11-20T14:46:23;1.40;99.90
10722;DHT22;5412;59.450;18.124;2022-11-20T14:48:57;1.30;99.90
10722;DHT22;5412;59.450;18.124;2022-11-20T14:53:56;1.30;99.90
10722;DHT22;5412;59.450;18.124;2022-11-20T14:56:23;1.30;99.90
10722;DHT22;5412;59.450;18.124;2022-11-20T14:58:58;1.20;99.90
10722;DHT22;5412;59.450;18.124;2022-11-20T15:01:29;1.20;99.90
10722;DHT22;5412;59.450;18.124;2022-11-20T15:04:09;1.10;99.90
10722;DHT22;5412;59.450;18.124;2022-11-20T15:06:35;1.00;99.90
10722;DHT22;5412;59.450;18.124;2022-11-20T15:09:03;1.00;99.90
10722;DHT22;5412;59.450;18.124;2022-11-20T15:11:32;1.10;99.90
10722;DHT22;5412;59.450;18.124;2022-11-20T15:14:03;1.00;99.90
10722;DHT22;5412;59.450;18.124;2022-11-20T15:16:30;0.90;99.90
10722;DHT22;5412;59.450;18.124;2022-11-20T15:18:56;0.90;99.90
10722;DHT22;5412;59.450;18.124;2022-11-20T15:21:22;0.90;99.90
10722;DHT22;5412;59.450;18.124;2022-11-20T15:23:48;0.90;99.90
10722;DHT22;5412;59.450;18.124;2022-11-20T15:26:18;0.80;99.90
10722;DHT22;5412;59.450;18.124;2022-11-20T15:28:47;0.90;99.90
10722;DHT22;5412;59.450;18.124;2022-11-20T15:31:17;0.80;99.90
10722;DHT22;5412;59.450;18.124;2022-11-20T15:33:43;0.90;99.90
10722;DHT22;5412;59.450;18.124;2022-11-20T15:36:11;0.90;99.90
10722;DHT22;5412;59.450;18.124;2022-11-20T15:38:38;0.90;99.90
10722;DHT22;5412;59.450;18.124;2022-11-20T15:41:04;0.90;99.90
10722;DHT22;5412;59.450;18.124;2022-11-20T15:43:30;0.80;99.90
10722;DHT22;5412;59.450;18.124;2022-11-20T15:45:59;0.80;99.90
10722;DHT22;5412;59.450;18.124;2022-11-20T15:48:35;0.80;99.90
10722;DHT22;5412;59.450;18.124;2022-11-20T15:53:37;1.00;99.90
10722;DHT22;5412;59.450;18.124;2022-11-20T15:56:03;0.90;99.90
10722;DHT22;5412;59.450;18.124;2022-11-20T15:58:29;0.80;99.90
10722;DHT22;5412;59.450;18.124;2022-11-20T16:00:54;0.80;99.90
10722;DHT22;5412;59.450;18.124;2022-11-20T16:03:20;0.80;99.90
10722;DHT22;5412;59.450;18.124;2022-11-20T16:05:46;0.80;99.90
10722;DHT22;5412;59.450;18.124;2022-11-20T16:08:12;0.80;99.90
10722;DHT22;5412;59.450;18.124;2022-11-20T16:10:39;0.80;99.90
10722;DHT22;5412;59.450;18.124;2022-11-20T16:13:09;0.80;99.90
10722;DHT22;5412;59.450;18.124;2022-11-20T16:15:56;0.80;99.90
10722;DHT22;5412;59.450;18.124;2022-11-20T16:18:25;0.80;99.90
10722;DHT22;5412;59.450;18.124;2022-11-20T16:20:58;0.80;99.90
10722;DHT22;5412;59.450;18.124;2022-11-20T16:23:24;0.80;99.90
10722;DHT22;5412;59.450;18.124;2022-11-20T16:25:51;0.90;99.90
10722;DHT22;5412;59.450;18.124;2022-11-20T16:28:17;0.80;99.90
10722;DHT22;5412;59.450;18.124;2022-11-20T16:30:43;0.70;99.90
10722;DHT22;5412;59.450;18.124;2022-11-20T16:33:15;0.80;99.90
10722;DHT22;5412;59.450;18.124;2022-11-20T16:35:41;0.70;99.90
10722;DHT22;5412;59.450;18.124;2022-11-20T16:38:07;0.80;99.90
10722;DHT22;5412;59.450;18.124;2022-11-20T16:40:32;0.80;99.90
10722;DHT22;5412;59.450;18.124;2022-11-20T16:43:07;0.70;99.90
10722;DHT22;5412;59.450;18.124;2022-11-20T16:45:33;0.80;99.90
10722;DHT22;5412;59.450;18.124;2022-11-20T16:47:59;0.80;99.90
10722;DHT22;5412;59.450;18.124;2022-11-20T16:50:25;0.80;99.90
10722;DHT22;5412;59.450;18.124;2022-11-20T16:52:50;0.80;99.90
10722;DHT22;5412;59.450;18.124;2022-11-20T16:55:16;0.90;99.90
10722;DHT22;5412;59.450;18.124;2022-11-20T16:57:42;0.90;99.90
10722;DHT22;5412;59.450;18.124;2022-11-20T17:00:28;1.00;99.90
10722;DHT22;5412;59.450;18.124;2022-11-20T17:02:53;0.90;99.90
10722;DHT22;5412;59.450;18.124;2022-11-20T17:05:19;0.90;99.90
10722;DHT22;5412;59.450;18.124;2022-11-20T17:07:45;1.00;99.90
10722;DHT22;5412;59.450;18.124;2022-11-20T17:10:11;1.00;99.90
10722;DHT22;5412;59.450;18.124;2022-11-20T17:12:36;1.00;99.90
10722;DHT22;5412;59.450;18.124;2022-11-20T17:15:02;1.00;99.90
10722;DHT22;5412;59.450;18.124;2022-11-20T17:17:28;1.00;99.90
10722;DHT22;5412;59.450;18.124;2022-11-20T17:19:59;1.10;99.90
10722;DHT22;5412;59.450;18.124;2022-11-20T17:22:28;1.00;99.90
10722;DHT22;5412;59.450;18.124;2022-11-20T17:24:54;1.10;99.90
10722;DHT22;5412;59.450;18.124;2022-11-20T17:27:19;1.10;99.90
10722;DHT22;5412;59.450;18.124;2022-11-20T17:29:47;1.10;99.90
10722;DHT22;5412;59.450;18.124;2022-11-20T17:32:13;1.10;99.90
10722;DHT22;5412;59.450;18.124;2022-11-20T17:34:39;1.10;99.90
10722;DHT22;5412;59.450;18.124;2022-11-20T17:37:05;1.10;99.90
10722;DHT22;5412;59.450;18.124;2022-11-20T17:39:31;1.10;99.90
10722;DHT22;5412;59.450;18.124;2022-11-20T17:41:56;1.20;99.90
10722;DHT22;5412;59.450;18.124;2022-11-20T17:44:40;1.10;99.90